sensor_id;sensor_type;location;lat;lon;timestamp;P1;durP1;ratioP1;P2;durP2;ratioP2
79747;SDS011;69232;47.488;19.268;2023-11-22T00:01:50;22.33;;;11.30;;
79747;SDS011;69232;47.488;19.268;2023-11-22T00:04:15;28.65;;;12.50;;
79747;SDS011;69232;47.488;19.268;2023-11-22T00:06:42;23.88;;;10.30;;
79747;SDS011;69232;47.488;19.268;2023-11-22T00:09:08;25.80;;;10.18;;
79747;SDS011;69232;47.488;19.268;2023-11-22T00:11:33;22.52;;;9.52;;
79747;SDS011;69232;47.488;19.268;2023-11-22T00:13:59;21.60;;;9.48;;
79747;SDS011;69232;47.488;19.268;2023-11-22T00:16:25;22.75;;;10.05;;
79747;SDS011;69232;47.488;19.268;2023-11-22T00:18:50;21.83;;;10.10;;
79747;SDS011;69232;47.488;19.268;2023-11-22T00:21:16;21.10;;;10.07;;
79747;SDS011;69232;47.488;19.268;2023-11-22T00:23:41;29.25;;;10.88;;
79747;SDS011;69232;47.488;19.268;2023-11-22T00:26:08;25.55;;;10.80;;
79747;SDS011;69232;47.488;19.268;2023-11-22T00:28:33;28.73;;;10.00;;
79747;SDS011;69232;47.488;19.268;2023-11-22T00:30:59;24.52;;;10.95;;
79747;SDS011;69232;47.488;19.268;2023-11-22T00:33:25;25.58;;;10.15;;
79747;SDS011;69232;47.488;19.268;2023-11-22T00:35:51;23.67;;;9.68;;
79747;SDS011;69232;47.488;19.268;2023-11-22T00:38:18;22.08;;;9.05;;
79747;SDS011;69232;47.488;19.268;2023-11-22T00:40:44;19.30;;;9.85;;
79747;SDS011;69232;47.488;19.268;2023-11-22T00:43:09;29.33;;;10.65;;
79747;SDS011;69232;47.488;19.268;2023-11-22T00:45:34;25.73;;;10.52;;
79747;SDS011;69232;47.488;19.268;2023-11-22T00:48:00;21.05;;;9.50;;
79747;SDS011;69232;47.488;19.268;2023-11-22T00:50:26;20.00;;;8.77;;
79747;SDS011;69232;47.488;19.268;2023-11-22T00:52:51;17.90;;;8.77;;
79747;SDS011;69232;47.488;19.268;2023-11-22T00:55:17;16.52;;;8.40;;
79747;SDS011;69232;47.488;19.268;2023-11-22T00:57:42;18.73;;;9.57;;
79747;SDS011;69232;47.488;19.268;2023-11-22T01:00:08;14.57;;;7.32;;
79747;SDS011;69232;47.488;19.268;2023-11-22T01:02:35;19.98;;;9.45;;
79747;SDS011;69232;47.488;19.268;2023-11-22T01:05:04;29.88;;;10.63;;
79747;SDS011;69232;47.488;19.268;2023-11-22T01:07:33;18.58;;;8.48;;
79747;SDS011;69232;47.488;19.268;2023-11-22T01:09:58;17.90;;;8.73;;
79747;SDS011;69232;47.488;19.268;2023-11-22T01:12:23;19.75;;;9.55;;
79747;SDS011;69232;47.488;19.268;2023-11-22T01:14:49;18.70;;;8.68;;
79747;SDS011;69232;47.488;19.268;2023-11-22T01:17:14;21.52;;;9.07;;
79747;SDS011;69232;47.488;19.268;2023-11-22T01:19:40;19.00;;;8.65;;
79747;SDS011;69232;47.488;19.268;2023-11-22T01:22:05;30.58;;;8.35;;
79747;SDS011;69232;47.488;19.268;2023-11-22T01:24:31;23.48;;;10.07;;
79747;SDS011;69232;47.488;19.268;2023-11-22T01:26:56;17.55;;;8.52;;
79747;SDS011;69232;47.488;19.268;2023-11-22T01:29:21;20.75;;;9.43;;
79747;SDS011;69232;47.488;19.268;2023-11-22T01:31:47;17.27;;;7.53;;
79747;SDS011;69232;47.488;19.268;2023-11-22T01:34:12;31.88;;;8.63;;
79747;SDS011;69232;47.488;19.268;2023-11-22T01:36:41;25.42;;;8.95;;
79747;SDS011;69232;47.488;19.268;2023-11-22T01:39:08;23.48;;;10.18;;
79747;SDS011;69232;47.488;19.268;2023-11-22T01:41:34;27.42;;;9.38;;
79747;SDS011;69232;47.488;19.268;2023-11-22T01:43:59;28.45;;;8.73;;
79747;SDS011;69232;47.488;19.268;2023-11-22T01:46:25;32.67;;;9.52;;
79747;SDS011;69232;47.488;19.268;2023-11-22T01:48:51;22.48;;;7.05;;
79747;SDS011;69232;47.488;19.268;2023-11-22T01:51:22;21.23;;;8.57;;
79747;SDS011;69232;47.488;19.268;2023-11-22T01:53:49;25.90;;;8.13;;
79747;SDS011;69232;47.488;19.268;2023-11-22T01:56:18;22.95;;;8.75;;
79747;SDS011;69232;47.488;19.268;2023-11-22T01:58:45;22.13;;;7.88;;
79747;SDS011;69232;47.488;19.268;2023-11-22T02:01:10;17.20;;;7.22;;
79747;SDS011;69232;47.488;19.268;2023-11-22T02:03:37;20.00;;;8.52;;
79747;SDS011;69232;47.488;19.268;2023-11-22T02:06:03;20.63;;;8.68;;
79747;SDS011;69232;47.488;19.268;2023-11-22T02:08:30;14.38;;;7.18;;
79747;SDS011;69232;47.488;19.268;2023-11-22T02:10:59;17.17;;;7.80;;
79747;SDS011;69232;47.488;19.268;2023-11-22T02:13:25;16.52;;;8.05;;
79747;SDS011;69232;47.488;19.268;2023-11-22T02:15:51;14.85;;;7.13;;
79747;SDS011;69232;47.488;19.268;2023-11-22T02:18:21;17.08;;;6.50;;
79747;SDS011;69232;47.488;19.268;2023-11-22T02:20:48;15.43;;;7.00;;
79747;SDS011;69232;47.488;19.268;2023-11-22T02:23:14;13.52;;;6.97;;
79747;SDS011;69232;47.488;19.268;2023-11-22T02:25:39;12.68;;;6.75;;
79747;SDS011;69232;47.488;19.268;2023-11-22T02:28:05;11.00;;;6.45;;
79747;SDS011;69232;47.488;19.268;2023-11-22T02:30:33;12.27;;;6.05;;
79747;SDS011;69232;47.488;19.268;2023-11-22T02:32:59;11.88;;;6.15;;
79747;SDS011;69232;47.488;19.268;2023-11-22T02:35:24;9.10;;;6.20;;
79747;SDS011;69232;47.488;19.268;2023-11-22T02:37:49;14.10;;;6.70;;
79747;SDS011;69232;47.488;19.268;2023-11-22T02:40:18;16.85;;;7.88;;
79747;SDS011;69232;47.488;19.268;2023-11-22T02:42:48;15.65;;;7.25;;
79747;SDS011;69232;47.488;19.268;2023-11-22T02:45:15;16.08;;;7.25;;
79747;SDS011;69232;47.488;19.268;2023-11-22T02:47:40;18.27;;;7.57;;
79747;SDS011;69232;47.488;19.268;2023-11-22T02:50:06;14.93;;;7.07;;
79747;SDS011;69232;47.488;19.268;2023-11-22T02:52:32;16.95;;;8.48;;
79747;SDS011;69232;47.488;19.268;2023-11-22T02:54:58;20.95;;;7.35;;
79747;SDS011;69232;47.488;19.268;2023-11-22T02:57:23;21.48;;;7.68;;
79747;SDS011;69232;47.488;19.268;2023-11-22T02:59:49;20.73;;;8.52;;
79747;SDS011;69232;47.488;19.268;2023-11-22T03:02:14;16.08;;;6.88;;
79747;SDS011;69232;47.488;19.268;2023-11-22T03:04:42;19.85;;;8.05;;
79747;SDS011;69232;47.488;19.268;2023-11-22T03:07:07;16.77;;;8.30;;
79747;SDS011;69232;47.488;19.268;2023-11-22T03:09:33;14.48;;;7.38;;
79747;SDS011;69232;47.488;19.268;2023-11-22T03:11:58;16.40;;;7.88;;
79747;SDS011;69232;47.488;19.268;2023-11-22T03:14:24;17.80;;;8.30;;
79747;SDS011;69232;47.488;19.268;2023-11-22T03:16:50;16.40;;;7.70;;
79747;SDS011;69232;47.488;19.268;2023-11-22T03:19:16;16.05;;;7.55;;
79747;SDS011;69232;47.488;19.268;2023-11-22T03:21:41;19.58;;;7.68;;
79747;SDS011;69232;47.488;19.268;2023-11-22T03:24:09;16.00;;;6.82;;
79747;SDS011;69232;47.488;19.268;2023-11-22T03:26:34;16.05;;;7.00;;
79747;SDS011;69232;47.488;19.268;2023-11-22T03:29:00;19.02;;;7.45;;
79747;SDS011;69232;47.488;19.268;2023-11-22T03:31:26;15.23;;;7.18;;
79747;SDS011;69232;47.488;19.268;2023-11-22T03:33:54;13.25;;;5.90;;
79747;SDS011;69232;47.488;19.268;2023-11-22T03:36:20;15.50;;;6.32;;
79747;SDS011;69232;47.488;19.268;2023-11-22T03:38:47;16.13;;;7.25;;
79747;SDS011;69232;47.488;19.268;2023-11-22T03:41:12;17.77;;;6.55;;
79747;SDS011;69232;47.488;19.268;2023-11-22T03:43:38;12.07;;;7.10;;
79747;SDS011;69232;47.488;19.268;2023-11-22T03:46:03;13.07;;;6.70;;
79747;SDS011;69232;47.488;19.268;2023-11-22T03:48:29;11.68;;;6.13;;
79747;SDS011;69232;47.488;19.268;2023-11-22T03:50:54;14.73;;;6.75;;
79747;SDS011;69232;47.488;19.268;2023-11-22T03:53:19;14.10;;;6.43;;
79747;SDS011;69232;47.488;19.268;2023-11-22T03:55:46;12.23;;;6.40;;
79747;SDS011;69232;47.488;19.268;2023-11-22T03:58:14;11.63;;;6.43;;
79747;SDS011;69232;47.488;19.268;2023-11-22T04:00:39;17.92;;;6.85;;
79747;SDS011;69232;47.488;19.268;2023-11-22T04:03:04;12.07;;;6.32;;
79747;SDS011;69232;47.488;19.268;2023-11-22T04:05:30;11.88;;;6.32;;
79747;SDS011;69232;47.488;19.268;2023-11-22T04:07:55;13.43;;;6.72;;
79747;SDS011;69232;47.488;19.268;2023-11-22T04:10:21;12.45;;;6.32;;
79747;SDS011;69232;47.488;19.268;2023-11-22T04:12:47;12.82;;;6.68;;
79747;SDS011;69232;47.488;19.268;2023-11-22T04:15:13;14.60;;;6.55;;
79747;SDS011;69232;47.488;19.268;2023-11-22T04:17:39;15.85;;;7.28;;
79747;SDS011;69232;47.488;19.268;2023-11-22T04:20:06;13.80;;;7.43;;
79747;SDS011;69232;47.488;19.268;2023-11-22T04:22:35;10.57;;;6.18;;
79747;SDS011;69232;47.488;19.268;2023-11-22T04:25:03;14.07;;;7.03;;
79747;SDS011;69232;47.488;19.268;2023-11-22T04:27:29;10.88;;;6.15;;
79747;SDS011;69232;47.488;19.268;2023-11-22T04:29:55;13.70;;;6.85;;
79747;SDS011;69232;47.488;19.268;2023-11-22T04:32:20;13.30;;;6.90;;
79747;SDS011;69232;47.488;19.268;2023-11-22T04:34:47;11.85;;;6.30;;
79747;SDS011;69232;47.488;19.268;2023-11-22T04:37:13;13.07;;;7.72;;
79747;SDS011;69232;47.488;19.268;2023-11-22T04:39:38;14.23;;;6.57;;
79747;SDS011;69232;47.488;19.268;2023-11-22T04:42:04;16.88;;;7.43;;
79747;SDS011;69232;47.488;19.268;2023-11-22T04:44:30;11.48;;;6.97;;
79747;SDS011;69232;47.488;19.268;2023-11-22T04:46:57;14.98;;;7.78;;
79747;SDS011;69232;47.488;19.268;2023-11-22T04:49:24;17.23;;;7.65;;
79747;SDS011;69232;47.488;19.268;2023-11-22T04:51:50;18.85;;;8.63;;
79747;SDS011;69232;47.488;19.268;2023-11-22T04:54:15;18.95;;;8.73;;
79747;SDS011;69232;47.488;19.268;2023-11-22T04:56:41;20.42;;;9.45;;
79747;SDS011;69232;47.488;19.268;2023-11-22T04:59:06;24.65;;;10.90;;
79747;SDS011;69232;47.488;19.268;2023-11-22T05:01:32;27.27;;;10.68;;
79747;SDS011;69232;47.488;19.268;2023-11-22T05:03:58;20.77;;;10.02;;
79747;SDS011;69232;47.488;19.268;2023-11-22T05:06:24;23.40;;;10.85;;
79747;SDS011;69232;47.488;19.268;2023-11-22T05:08:52;23.58;;;10.82;;
79747;SDS011;69232;47.488;19.268;2023-11-22T05:11:17;24.98;;;12.25;;
79747;SDS011;69232;47.488;19.268;2023-11-22T05:13:43;27.65;;;10.40;;
79747;SDS011;69232;47.488;19.268;2023-11-22T05:16:08;29.75;;;11.82;;
79747;SDS011;69232;47.488;19.268;2023-11-22T05:18:34;31.10;;;12.02;;
79747;SDS011;69232;47.488;19.268;2023-11-22T05:21:01;26.30;;;11.95;;
79747;SDS011;69232;47.488;19.268;2023-11-22T05:23:29;30.02;;;11.02;;
79747;SDS011;69232;47.488;19.268;2023-11-22T05:25:56;26.10;;;10.57;;
79747;SDS011;69232;47.488;19.268;2023-11-22T05:28:22;22.58;;;8.30;;
79747;SDS011;69232;47.488;19.268;2023-11-22T05:30:48;30.88;;;12.07;;
79747;SDS011;69232;47.488;19.268;2023-11-22T05:33:13;32.67;;;11.50;;
79747;SDS011;69232;47.488;19.268;2023-11-22T05:35:38;33.58;;;11.52;;
79747;SDS011;69232;47.488;19.268;2023-11-22T05:38:04;33.15;;;11.40;;
79747;SDS011;69232;47.488;19.268;2023-11-22T05:40:30;30.15;;;10.77;;
79747;SDS011;69232;47.488;19.268;2023-11-22T05:42:55;30.55;;;11.38;;
79747;SDS011;69232;47.488;19.268;2023-11-22T05:45:21;21.55;;;10.68;;
79747;SDS011;69232;47.488;19.268;2023-11-22T05:47:46;23.67;;;10.05;;
79747;SDS011;69232;47.488;19.268;2023-11-22T05:50:11;28.35;;;10.93;;
79747;SDS011;69232;47.488;19.268;2023-11-22T05:52:37;21.90;;;9.38;;
79747;SDS011;69232;47.488;19.268;2023-11-22T05:55:03;23.33;;;10.10;;
79747;SDS011;69232;47.488;19.268;2023-11-22T05:57:29;20.10;;;8.52;;
79747;SDS011;69232;47.488;19.268;2023-11-22T05:59:56;25.38;;;8.48;;
79747;SDS011;69232;47.488;19.268;2023-11-22T06:02:21;18.95;;;6.70;;
79747;SDS011;69232;47.488;19.268;2023-11-22T06:04:47;12.55;;;5.95;;
79747;SDS011;69232;47.488;19.268;2023-11-22T06:07:12;28.15;;;8.77;;
79747;SDS011;69232;47.488;19.268;2023-11-22T06:09:37;13.77;;;6.63;;
79747;SDS011;69232;47.488;19.268;2023-11-22T06:12:03;13.38;;;5.40;;
79747;SDS011;69232;47.488;19.268;2023-11-22T06:14:29;15.55;;;7.25;;
79747;SDS011;69232;47.488;19.268;2023-11-22T06:16:54;13.32;;;6.45;;
79747;SDS011;69232;47.488;19.268;2023-11-22T06:19:20;10.23;;;5.18;;
79747;SDS011;69232;47.488;19.268;2023-11-22T06:21:45;8.40;;;4.47;;
79747;SDS011;69232;47.488;19.268;2023-11-22T06:24:11;9.85;;;5.28;;
79747;SDS011;69232;47.488;19.268;2023-11-22T06:26:41;8.90;;;4.85;;
79747;SDS011;69232;47.488;19.268;2023-11-22T06:29:07;7.68;;;3.88;;
79747;SDS011;69232;47.488;19.268;2023-11-22T06:31:33;6.88;;;4.40;;
79747;SDS011;69232;47.488;19.268;2023-11-22T06:33:59;9.85;;;5.28;;
79747;SDS011;69232;47.488;19.268;2023-11-22T06:36:26;8.38;;;3.95;;
79747;SDS011;69232;47.488;19.268;2023-11-22T06:38:53;9.82;;;4.60;;
79747;SDS011;69232;47.488;19.268;2023-11-22T06:41:19;8.43;;;4.05;;
79747;SDS011;69232;47.488;19.268;2023-11-22T06:43:46;9.52;;;5.65;;
79747;SDS011;69232;47.488;19.268;2023-11-22T06:46:15;8.52;;;4.65;;
79747;SDS011;69232;47.488;19.268;2023-11-22T06:48:42;8.10;;;4.90;;
79747;SDS011;69232;47.488;19.268;2023-11-22T06:51:09;9.13;;;4.90;;
79747;SDS011;69232;47.488;19.268;2023-11-22T06:53:34;13.93;;;6.13;;
79747;SDS011;69232;47.488;19.268;2023-11-22T06:56:00;8.40;;;5.10;;
79747;SDS011;69232;47.488;19.268;2023-11-22T06:58:26;8.30;;;4.70;;
79747;SDS011;69232;47.488;19.268;2023-11-22T07:00:51;14.45;;;6.68;;
79747;SDS011;69232;47.488;19.268;2023-11-22T07:03:17;12.60;;;5.63;;
79747;SDS011;69232;47.488;19.268;2023-11-22T07:05:42;11.48;;;5.75;;
79747;SDS011;69232;47.488;19.268;2023-11-22T07:08:08;14.38;;;5.72;;
79747;SDS011;69232;47.488;19.268;2023-11-22T07:10:33;10.60;;;5.88;;
79747;SDS011;69232;47.488;19.268;2023-11-22T07:13:02;8.77;;;5.65;;
79747;SDS011;69232;47.488;19.268;2023-11-22T07:15:27;9.60;;;5.07;;
79747;SDS011;69232;47.488;19.268;2023-11-22T07:17:53;6.68;;;4.10;;
79747;SDS011;69232;47.488;19.268;2023-11-22T07:20:19;9.25;;;4.88;;
79747;SDS011;69232;47.488;19.268;2023-11-22T07:22:45;9.38;;;5.40;;
79747;SDS011;69232;47.488;19.268;2023-11-22T07:25:11;10.48;;;4.70;;
79747;SDS011;69232;47.488;19.268;2023-11-22T07:27:46;8.30;;;4.80;;
79747;SDS011;69232;47.488;19.268;2023-11-22T07:30:12;9.23;;;5.07;;
79747;SDS011;69232;47.488;19.268;2023-11-22T07:32:38;24.38;;;6.22;;
79747;SDS011;69232;47.488;19.268;2023-11-22T07:35:05;16.58;;;6.47;;
79747;SDS011;69232;47.488;19.268;2023-11-22T07:37:33;13.65;;;6.50;;
79747;SDS011;69232;47.488;19.268;2023-11-22T07:40:04;16.05;;;6.68;;
79747;SDS011;69232;47.488;19.268;2023-11-22T07:42:32;14.23;;;6.10;;
79747;SDS011;69232;47.488;19.268;2023-11-22T07:44:58;11.20;;;5.65;;
79747;SDS011;69232;47.488;19.268;2023-11-22T07:47:23;11.77;;;5.35;;
79747;SDS011;69232;47.488;19.268;2023-11-22T07:49:50;9.80;;;5.07;;
79747;SDS011;69232;47.488;19.268;2023-11-22T07:52:16;8.98;;;4.30;;
79747;SDS011;69232;47.488;19.268;2023-11-22T07:54:42;9.05;;;4.55;;
79747;SDS011;69232;47.488;19.268;2023-11-22T07:57:07;8.88;;;4.90;;
79747;SDS011;69232;47.488;19.268;2023-11-22T07:59:33;9.35;;;4.72;;
79747;SDS011;69232;47.488;19.268;2023-11-22T08:01:58;14.07;;;5.30;;
79747;SDS011;69232;47.488;19.268;2023-11-22T08:04:26;10.43;;;5.75;;
79747;SDS011;69232;47.488;19.268;2023-11-22T08:06:53;13.15;;;6.50;;
79747;SDS011;69232;47.488;19.268;2023-11-22T08:09:22;7.93;;;4.97;;
79747;SDS011;69232;47.488;19.268;2023-11-22T08:11:48;9.68;;;5.20;;
79747;SDS011;69232;47.488;19.268;2023-11-22T08:14:14;14.80;;;6.50;;
79747;SDS011;69232;47.488;19.268;2023-11-22T08:16:40;9.45;;;5.05;;
79747;SDS011;69232;47.488;19.268;2023-11-22T08:19:08;7.88;;;4.25;;
79747;SDS011;69232;47.488;19.268;2023-11-22T08:21:34;7.45;;;3.97;;
79747;SDS011;69232;47.488;19.268;2023-11-22T08:23:59;10.43;;;5.43;;
79747;SDS011;69232;47.488;19.268;2023-11-22T08:26:25;10.30;;;4.45;;
79747;SDS011;69232;47.488;19.268;2023-11-22T08:28:53;10.27;;;5.00;;
79747;SDS011;69232;47.488;19.268;2023-11-22T08:31:20;8.05;;;4.90;;
79747;SDS011;69232;47.488;19.268;2023-11-22T08:33:46;8.65;;;4.10;;
79747;SDS011;69232;47.488;19.268;2023-11-22T08:36:11;9.48;;;3.63;;
79747;SDS011;69232;47.488;19.268;2023-11-22T08:38:37;5.75;;;2.83;;
79747;SDS011;69232;47.488;19.268;2023-11-22T08:41:09;8.35;;;3.60;;
79747;SDS011;69232;47.488;19.268;2023-11-22T08:43:38;5.68;;;2.58;;
79747;SDS011;69232;47.488;19.268;2023-11-22T08:46:04;3.58;;;2.17;;
79747;SDS011;69232;47.488;19.268;2023-11-22T08:48:30;5.15;;;2.30;;
79747;SDS011;69232;47.488;19.268;2023-11-22T08:50:55;4.93;;;2.53;;
79747;SDS011;69232;47.488;19.268;2023-11-22T08:53:22;5.88;;;3.22;;
79747;SDS011;69232;47.488;19.268;2023-11-22T08:55:47;6.15;;;2.72;;
79747;SDS011;69232;47.488;19.268;2023-11-22T08:58:13;4.72;;;2.60;;
79747;SDS011;69232;47.488;19.268;2023-11-22T09:00:39;6.10;;;3.53;;
79747;SDS011;69232;47.488;19.268;2023-11-22T09:03:06;6.72;;;3.45;;
79747;SDS011;69232;47.488;19.268;2023-11-22T09:05:32;6.22;;;2.92;;
79747;SDS011;69232;47.488;19.268;2023-11-22T09:07:58;6.95;;;2.92;;
79747;SDS011;69232;47.488;19.268;2023-11-22T09:10:26;5.03;;;2.92;;
79747;SDS011;69232;47.488;19.268;2023-11-22T09:12:51;4.75;;;2.63;;
79747;SDS011;69232;47.488;19.268;2023-11-22T09:15:17;6.38;;;2.75;;
79747;SDS011;69232;47.488;19.268;2023-11-22T09:17:48;7.05;;;3.50;;
79747;SDS011;69232;47.488;19.268;2023-11-22T09:20:15;9.48;;;3.40;;
79747;SDS011;69232;47.488;19.268;2023-11-22T09:22:51;5.65;;;3.30;;
79747;SDS011;69232;47.488;19.268;2023-11-22T09:27:45;4.22;;;2.83;;
79747;SDS011;69232;47.488;19.268;2023-11-22T09:30:15;6.05;;;3.25;;
79747;SDS011;69232;47.488;19.268;2023-11-22T09:32:57;5.80;;;2.45;;
79747;SDS011;69232;47.488;19.268;2023-11-22T09:35:26;6.53;;;2.88;;
79747;SDS011;69232;47.488;19.268;2023-11-22T09:37:54;6.10;;;2.58;;
79747;SDS011;69232;47.488;19.268;2023-11-22T09:40:23;7.53;;;2.80;;
79747;SDS011;69232;47.488;19.268;2023-11-22T09:42:48;4.57;;;2.65;;
79747;SDS011;69232;47.488;19.268;2023-11-22T09:45:19;10.88;;;4.10;;
79747;SDS011;69232;47.488;19.268;2023-11-22T09:47:45;5.95;;;3.13;;
79747;SDS011;69232;47.488;19.268;2023-11-22T09:50:14;8.05;;;3.55;;
79747;SDS011;69232;47.488;19.268;2023-11-22T09:53:06;6.72;;;3.05;;
79747;SDS011;69232;47.488;19.268;2023-11-22T09:55:40;6.07;;;3.50;;
79747;SDS011;69232;47.488;19.268;2023-11-22T09:58:08;6.47;;;3.38;;
79747;SDS011;69232;47.488;19.268;2023-11-22T10:00:36;9.15;;;3.95;;
79747;SDS011;69232;47.488;19.268;2023-11-22T10:03:02;5.78;;;3.55;;
79747;SDS011;69232;47.488;19.268;2023-11-22T10:05:28;5.32;;;3.05;;
79747;SDS011;69232;47.488;19.268;2023-11-22T10:07:54;9.30;;;4.57;;
79747;SDS011;69232;47.488;19.268;2023-11-22T10:10:21;9.10;;;3.78;;
79747;SDS011;69232;47.488;19.268;2023-11-22T10:12:47;52.33;;;21.50;;
79747;SDS011;69232;47.488;19.268;2023-11-22T10:15:14;6.90;;;3.95;;
79747;SDS011;69232;47.488;19.268;2023-11-22T10:17:41;16.85;;;7.43;;
79747;SDS011;69232;47.488;19.268;2023-11-22T10:20:12;24.55;;;16.30;;
79747;SDS011;69232;47.488;19.268;2023-11-22T10:22:44;6.93;;;4.05;;
79747;SDS011;69232;47.488;19.268;2023-11-22T10:25:14;9.45;;;6.07;;
79747;SDS011;69232;47.488;19.268;2023-11-22T10:27:43;5.50;;;3.28;;
79747;SDS011;69232;47.488;19.268;2023-11-22T10:30:16;7.22;;;3.83;;
79747;SDS011;69232;47.488;19.268;2023-11-22T10:32:43;6.53;;;4.07;;
79747;SDS011;69232;47.488;19.268;2023-11-22T10:35:09;5.25;;;2.85;;
79747;SDS011;69232;47.488;19.268;2023-11-22T10:37:35;6.00;;;4.25;;
79747;SDS011;69232;47.488;19.268;2023-11-22T10:40:00;5.82;;;3.35;;
79747;SDS011;69232;47.488;19.268;2023-11-22T10:42:26;5.10;;;3.00;;
79747;SDS011;69232;47.488;19.268;2023-11-22T10:44:54;6.72;;;3.97;;
79747;SDS011;69232;47.488;19.268;2023-11-22T10:47:22;7.10;;;3.80;;
79747;SDS011;69232;47.488;19.268;2023-11-22T10:49:48;6.15;;;3.30;;
79747;SDS011;69232;47.488;19.268;2023-11-22T10:52:13;7.13;;;3.97;;
79747;SDS011;69232;47.488;19.268;2023-11-22T10:54:41;7.35;;;3.55;;
79747;SDS011;69232;47.488;19.268;2023-11-22T10:57:10;8.65;;;3.58;;
79747;SDS011;69232;47.488;19.268;2023-11-22T10:59:37;6.78;;;3.60;;
79747;SDS011;69232;47.488;19.268;2023-11-22T11:02:05;11.10;;;4.50;;
79747;SDS011;69232;47.488;19.268;2023-11-22T11:04:51;7.95;;;3.63;;
79747;SDS011;69232;47.488;19.268;2023-11-22T11:07:21;11.23;;;4.90;;
79747;SDS011;69232;47.488;19.268;2023-11-22T11:09:47;4.18;;;3.00;;
79747;SDS011;69232;47.488;19.268;2023-11-22T11:12:16;9.95;;;3.25;;
79747;SDS011;69232;47.488;19.268;2023-11-22T11:14:42;4.65;;;3.17;;
79747;SDS011;69232;47.488;19.268;2023-11-22T11:17:10;5.40;;;3.13;;
79747;SDS011;69232;47.488;19.268;2023-11-22T11:19:35;6.78;;;3.67;;
79747;SDS011;69232;47.488;19.268;2023-11-22T11:22:01;6.20;;;4.00;;
79747;SDS011;69232;47.488;19.268;2023-11-22T11:24:26;6.57;;;3.00;;
79747;SDS011;69232;47.488;19.268;2023-11-22T11:26:52;5.32;;;3.33;;
79747;SDS011;69232;47.488;19.268;2023-11-22T11:29:33;5.28;;;3.13;;
79747;SDS011;69232;47.488;19.268;2023-11-22T11:32:05;6.40;;;3.25;;
79747;SDS011;69232;47.488;19.268;2023-11-22T11:34:45;4.28;;;2.53;;
79747;SDS011;69232;47.488;19.268;2023-11-22T11:37:13;5.13;;;3.05;;
79747;SDS011;69232;47.488;19.268;2023-11-22T11:39:39;5.82;;;3.00;;
79747;SDS011;69232;47.488;19.268;2023-11-22T11:42:11;7.55;;;3.65;;
79747;SDS011;69232;47.488;19.268;2023-11-22T11:44:50;6.28;;;3.00;;
79747;SDS011;69232;47.488;19.268;2023-11-22T11:47:17;6.25;;;3.00;;
79747;SDS011;69232;47.488;19.268;2023-11-22T11:49:42;5.75;;;3.35;;
79747;SDS011;69232;47.488;19.268;2023-11-22T11:52:08;6.15;;;3.10;;
79747;SDS011;69232;47.488;19.268;2023-11-22T11:54:33;6.35;;;3.38;;
79747;SDS011;69232;47.488;19.268;2023-11-22T11:57:00;11.65;;;6.40;;
79747;SDS011;69232;47.488;19.268;2023-11-22T11:59:26;6.97;;;3.42;;
79747;SDS011;69232;47.488;19.268;2023-11-22T12:01:55;7.40;;;4.45;;
79747;SDS011;69232;47.488;19.268;2023-11-22T12:04:22;7.18;;;3.70;;
79747;SDS011;69232;47.488;19.268;2023-11-22T12:06:49;7.40;;;4.00;;
79747;SDS011;69232;47.488;19.268;2023-11-22T12:09:21;6.75;;;4.30;;
79747;SDS011;69232;47.488;19.268;2023-11-22T12:12:00;8.50;;;4.50;;
79747;SDS011;69232;47.488;19.268;2023-11-22T12:14:27;12.75;;;5.68;;
79747;SDS011;69232;47.488;19.268;2023-11-22T12:16:53;6.03;;;3.33;;
79747;SDS011;69232;47.488;19.268;2023-11-22T12:19:27;6.82;;;3.55;;
79747;SDS011;69232;47.488;19.268;2023-11-22T12:21:53;6.18;;;3.88;;
79747;SDS011;69232;47.488;19.268;2023-11-22T12:24:19;11.27;;;4.25;;
79747;SDS011;69232;47.488;19.268;2023-11-22T12:26:48;7.70;;;4.53;;
79747;SDS011;69232;47.488;19.268;2023-11-22T12:29:15;6.93;;;3.72;;
79747;SDS011;69232;47.488;19.268;2023-11-22T12:31:52;10.20;;;3.70;;
79747;SDS011;69232;47.488;19.268;2023-11-22T12:34:20;6.22;;;3.33;;
79747;SDS011;69232;47.488;19.268;2023-11-22T12:36:46;6.22;;;3.45;;
79747;SDS011;69232;47.488;19.268;2023-11-22T12:39:15;7.03;;;3.08;;
79747;SDS011;69232;47.488;19.268;2023-11-22T12:41:44;7.60;;;4.57;;
79747;SDS011;69232;47.488;19.268;2023-11-22T12:44:10;5.28;;;3.38;;
79747;SDS011;69232;47.488;19.268;2023-11-22T12:46:45;6.65;;;3.97;;
79747;SDS011;69232;47.488;19.268;2023-11-22T12:49:11;8.05;;;3.90;;
79747;SDS011;69232;47.488;19.268;2023-11-22T12:51:37;7.57;;;3.53;;
79747;SDS011;69232;47.488;19.268;2023-11-22T12:54:02;5.45;;;3.33;;
79747;SDS011;69232;47.488;19.268;2023-11-22T12:56:28;5.55;;;2.88;;
79747;SDS011;69232;47.488;19.268;2023-11-22T12:58:54;3.83;;;2.20;;
79747;SDS011;69232;47.488;19.268;2023-11-22T13:01:19;5.75;;;2.33;;
79747;SDS011;69232;47.488;19.268;2023-11-22T13:03:45;5.03;;;3.17;;
79747;SDS011;69232;47.488;19.268;2023-11-22T13:06:11;10.98;;;6.15;;
79747;SDS011;69232;47.488;19.268;2023-11-22T13:08:36;5.72;;;3.58;;
79747;SDS011;69232;47.488;19.268;2023-11-22T13:11:02;7.90;;;4.28;;
79747;SDS011;69232;47.488;19.268;2023-11-22T13:13:27;15.45;;;6.13;;
79747;SDS011;69232;47.488;19.268;2023-11-22T13:15:54;19.45;;;6.15;;
79747;SDS011;69232;47.488;19.268;2023-11-22T13:18:20;11.15;;;5.40;;
79747;SDS011;69232;47.488;19.268;2023-11-22T13:20:46;14.48;;;5.35;;
79747;SDS011;69232;47.488;19.268;2023-11-22T13:23:12;5.55;;;3.45;;
79747;SDS011;69232;47.488;19.268;2023-11-22T13:25:38;5.03;;;2.88;;
79747;SDS011;69232;47.488;19.268;2023-11-22T13:28:04;8.18;;;3.13;;
79747;SDS011;69232;47.488;19.268;2023-11-22T13:30:31;4.78;;;2.88;;
79747;SDS011;69232;47.488;19.268;2023-11-22T13:32:56;6.03;;;3.20;;
79747;SDS011;69232;47.488;19.268;2023-11-22T13:35:25;7.00;;;2.60;;
79747;SDS011;69232;47.488;19.268;2023-11-22T13:37:55;5.32;;;2.85;;
79747;SDS011;69232;47.488;19.268;2023-11-22T13:40:22;8.15;;;3.90;;
79747;SDS011;69232;47.488;19.268;2023-11-22T13:42:48;14.23;;;6.75;;
79747;SDS011;69232;47.488;19.268;2023-11-22T13:45:16;12.57;;;5.40;;
79747;SDS011;69232;47.488;19.268;2023-11-22T13:47:48;13.57;;;5.38;;
79747;SDS011;69232;47.488;19.268;2023-11-22T13:50:22;16.48;;;6.65;;
79747;SDS011;69232;47.488;19.268;2023-11-22T13:52:49;11.65;;;4.95;;
79747;SDS011;69232;47.488;19.268;2023-11-22T13:55:15;16.17;;;6.88;;
79747;SDS011;69232;47.488;19.268;2023-11-22T13:57:43;16.45;;;6.53;;
79747;SDS011;69232;47.488;19.268;2023-11-22T14:00:09;15.52;;;7.45;;
79747;SDS011;69232;47.488;19.268;2023-11-22T14:02:38;10.27;;;5.53;;
79747;SDS011;69232;47.488;19.268;2023-11-22T14:05:05;14.18;;;5.75;;
79747;SDS011;69232;47.488;19.268;2023-11-22T14:07:35;12.05;;;6.28;;
79747;SDS011;69232;47.488;19.268;2023-11-22T14:10:01;14.75;;;7.15;;
79747;SDS011;69232;47.488;19.268;2023-11-22T14:12:31;13.68;;;7.22;;
79747;SDS011;69232;47.488;19.268;2023-11-22T14:14:57;21.83;;;10.43;;
79747;SDS011;69232;47.488;19.268;2023-11-22T14:17:23;22.30;;;11.60;;
79747;SDS011;69232;47.488;19.268;2023-11-22T14:19:49;15.43;;;7.97;;
79747;SDS011;69232;47.488;19.268;2023-11-22T14:22:15;13.98;;;7.15;;
79747;SDS011;69232;47.488;19.268;2023-11-22T14:24:42;12.57;;;5.97;;
79747;SDS011;69232;47.488;19.268;2023-11-22T14:27:08;12.90;;;6.78;;